Time;durP1;ratioP1;P1;durP2;ratioP2;P2;SDS_P1;SDS_P2;PMS_P1;PMS_P2;Temp;Humidity;BMP_temperature;BMP_pressure;BME280_temperature;BME280_humidity;BME280_pressure;Samples;Min_cycle;Max_cycle;Signal;HPM_P1;HPM_P2
2021/11/13 00:01:49;;;;;;;;;;;19.00;95.60;;;;;;5093595;28;19977;-66
2021/11/13 00:04:16;;;;;;;;;;;18.90;94.60;;;;;;5093611;28;20397;-66
2021/11/13 00:06:43;;;;;;;;;;;18.90;95.70;;;;;;5093648;28;19957;-66
2021/11/13 00:09:11;;;;;;;;;;;18.80;94.70;;;;;;5093607;28;19931;-67
2021/11/13 00:11:37;;;;;;;;;;;18.80;95.10;;;;;;5093688;28;19981;-66
2021/11/13 00:14:04;;;;;;;;;;;18.80;95.50;;;;;;5093318;28;19914;-69
2021/11/13 00:16:34;;;;;;;;;;;18.70;94.60;;;;;;5093655;28;19912;-67
2021/11/13 00:19:01;;;;;;;;;;;18.80;95.00;;;;;;5093376;28;20385;-66
2021/11/13 00:21:29;;;;;;;;;;;18.80;94.80;;;;;;5093572;28;19908;-68
2021/11/13 00:23:55;;;;;;;;;;;18.80;94.40;;;;;;5093077;28;20050;-66
2021/11/13 00:26:22;;;;;;;;;;;18.90;94.40;;;;;;5093168;28;19916;-66
2021/11/13 00:28:49;;;;;;;;;;;19.00;95.00;;;;;;5093073;28;19943;-68
2021/11/13 00:31:17;;;;;;;;;;;19.20;94.30;;;;;;5093325;28;19915;-66
2021/11/13 00:33:43;;;;;;;;;;;19.20;93.70;;;;;;5093142;28;19919;-67
2021/11/13 00:36:10;;;;;;;;;;;19.20;93.90;;;;;;5093128;28;19908;-67
2021/11/13 00:38:37;;;;;;;;;;;19.20;94.20;;;;;;5093249;28;19908;-67
2021/11/13 00:41:03;;;;;;;;;;;19.20;94.20;;;;;;5092904;28;20377;-73
2021/11/13 00:43:30;;;;;;;;;;;19.30;93.60;;;;;;5093329;28;20251;-69
2021/11/13 00:45:57;;;;;;;;;;;19.20;93.60;;;;;;5092079;28;19916;-66
2021/11/13 00:48:23;;;;;;;;;;;18.90;93.30;;;;;;5092833;28;19919;-68
2021/11/13 00:50:50;;;;;;;;;;;19.00;94.30;;;;;;5092989;28;20244;-66
2021/11/13 00:53:18;;;;;;;;;;;19.00;93.60;;;;;;5093123;28;20384;-68
2021/11/13 00:55:45;;;;;;;;;;;19.00;94.30;;;;;;5092768;28;19909;-67
2021/11/13 00:58:12;;;;;;;;;;;18.90;94.50;;;;;;5092809;28;19962;-66
2021/11/13 01:00:41;;;;;;;;;;;18.80;93.80;;;;;;5093206;28;19954;-73
2021/11/13 01:03:10;;;;;;;;;;;18.70;93.80;;;;;;5092975;28;20497;-72
2021/11/13 01:05:40;;;;;;;;;;;18.80;94.20;;;;;;5091923;28;20558;-69
2021/11/13 01:08:07;;;;;;;;;;;19.10;94.00;;;;;;5092555;28;19908;-69
2021/11/13 01:10:33;;;;;;;;;;;19.00;94.30;;;;;;5092300;28;20274;-73
2021/11/13 01:13:00;;;;;;;;;;;19.10;94.70;;;;;;5092804;28;19931;-72
2021/11/13 01:15:27;;;;;;;;;;;19.20;94.30;;;;;;5092621;28;19908;-73
2021/11/13 01:17:54;;;;;;;;;;;19.30;93.90;;;;;;5100103;22;20023;-69
2021/11/13 01:20:23;;;;;;;;;;;19.40;93.80;;;;;;5092374;28;19919;-73
2021/11/13 01:22:50;;;;;;;;;;;19.50;93.90;;;;;;5092566;28;20388;-71
2021/11/13 01:25:17;;;;;;;;;;;19.60;94.00;;;;;;5092338;28;19916;-67
2021/11/13 01:27:44;;;;;;;;;;;19.60;92.90;;;;;;5092419;28;20358;-73
2021/11/13 01:30:11;;;;;;;;;;;19.60;93.50;;;;;;5092286;28;20015;-69
2021/11/13 01:32:38;;;;;;;;;;;19.80;93.90;;;;;;5091136;28;19938;-74
2021/11/13 01:35:08;;;;;;;;;;;19.70;93.00;;;;;;5092221;28;19920;-74
2021/11/13 01:37:35;;;;;;;;;;;19.80;94.40;;;;;;5092327;28;19913;-70
2021/11/13 01:40:03;;;;;;;;;;;20.00;93.90;;;;;;5092018;28;19908;-67
2021/11/13 01:42:30;;;;;;;;;;;20.00;94.30;;;;;;5092542;28;19908;-71
2021/11/13 01:44:57;;;;;;;;;;;20.00;93.10;;;;;;5090936;28;20267;-67
2021/11/13 01:47:24;;;;;;;;;;;19.90;93.40;;;;;;5092081;28;20429;-72
2021/11/13 01:49:51;;;;;;;;;;;20.00;93.30;;;;;;5091089;28;19959;-73
2021/11/13 01:52:18;;;;;;;;;;;20.10;92.40;;;;;;5090157;28;19962;-71
2021/11/13 01:54:45;;;;;;;;;;;20.00;93.20;;;;;;5090134;28;19991;-73
2021/11/13 01:57:20;;;;;;;;;;;20.00;92.50;;;;;;5090240;28;19915;-70
2021/11/13 01:59:47;;;;;;;;;;;19.90;93.90;;;;;;5093821;28;19912;-73
2021/11/13 02:02:14;;;;;;;;;;;19.80;92.40;;;;;;5092927;28;19916;-68
2021/11/13 02:04:41;;;;;;;;;;;20.00;93.30;;;;;;5093572;28;20018;-73
2021/11/13 02:07:08;;;;;;;;;;;20.20;93.20;;;;;;5094096;28;19912;-75
2021/11/13 02:09:35;;;;;;;;;;;20.30;93.00;;;;;;5094005;28;20488;-73
2021/11/13 02:12:06;;;;;;;;;;;20.30;92.30;;;;;;5093539;28;19912;-74
2021/11/13 02:14:33;;;;;;;;;;;20.20;92.90;;;;;;5093770;28;19912;-75
2021/11/13 02:17:00;;;;;;;;;;;20.10;92.70;;;;;;5093291;28;20315;-71
2021/11/13 02:19:26;;;;;;;;;;;20.10;93.00;;;;;;5093620;28;19973;-75
2021/11/13 02:21:54;;;;;;;;;;;20.10;93.20;;;;;;5093467;28;20003;-73
2021/11/13 02:24:20;;;;;;;;;;;20.10;92.60;;;;;;5093655;28;19912;-74
2021/11/13 02:26:47;;;;;;;;;;;20.00;92.30;;;;;;5093728;28;19912;-72
2021/11/13 02:29:14;;;;;;;;;;;20.00;92.30;;;;;;5092067;28;20008;-71
2021/11/13 02:31:42;;;;;;;;;;;19.80;92.20;;;;;;5093537;28;20342;-72
2021/11/13 02:34:10;;;;;;;;;;;19.70;92.80;;;;;;5093548;28;20007;-70
2021/11/13 02:36:37;;;;;;;;;;;19.70;93.50;;;;;;5093371;28;19915;-72
2021/11/13 02:39:06;;;;;;;;;;;19.80;93.70;;;;;;5093285;28;19965;-73
2021/11/13 02:41:32;;;;;;;;;;;19.80;92.80;;;;;;5093239;28;20289;-73
2021/11/13 02:43:59;;;;;;;;;;;19.80;93.40;;;;;;5092250;28;19999;-73
2021/11/13 02:46:26;;;;;;;;;;;19.80;93.10;;;;;;5093045;28;19927;-67
2021/11/13 02:48:53;;;;;;;;;;;19.70;92.60;;;;;;5093047;28;19923;-72
2021/11/13 02:51:20;;;;;;;;;;;19.60;93.70;;;;;;5092964;28;19947;-76
2021/11/13 02:53:52;;;;;;;;;;;19.60;92.80;;;;;;5092957;28;19918;-74
2021/11/13 02:56:19;;;;;;;;;;;19.50;93.60;;;;;;5092811;28;19915;-74
2021/11/13 02:58:46;;;;;;;;;;;19.70;93.70;;;;;;5092987;28;19991;-75
2021/11/13 03:01:15;;;;;;;;;;;19.70;93.10;;;;;;5092152;28;19998;-75
2021/11/13 03:03:41;;;;;;;;;;;19.90;92.30;;;;;;5092978;28;19994;-76
2021/11/13 03:06:10;;;;;;;;;;;19.90;92.30;;;;;;5092697;28;19920;-76
2021/11/13 03:08:37;;;;;;;;;;;20.00;92.90;;;;;;5092583;28;19916;-73
2021/11/13 03:11:06;;;;;;;;;;;20.00;92.50;;;;;;5091959;28;19912;-75
2021/11/13 03:13:33;;;;;;;;;;;20.00;92.90;;;;;;5092574;28;19959;-73
2021/11/13 03:16:01;;;;;;;;;;;20.10;93.50;;;;;;5092514;28;19912;-75
2021/11/13 03:18:28;;;;;;;;;;;20.10;93.00;;;;;;5092386;28;19981;-76
2021/11/13 03:20:56;;;;;;;;;;;20.10;93.30;;;;;;5092633;28;19959;-75
2021/11/13 03:23:24;;;;;;;;;;;20.00;92.30;;;;;;5092205;28;19908;-73
2021/11/13 03:26:13;;;;;;;;;;;20.10;93.00;;;;;;5092272;28;20034;-70
2021/11/13 03:28:42;;;;;;;;;;;20.10;92.50;;;;;;5084258;28;20020;-74
2021/11/13 03:31:12;;;;;;;;;;;20.20;91.90;;;;;;5092451;28;20603;-74
2021/11/13 03:33:40;;;;;;;;;;;20.10;92.00;;;;;;5092481;28;19908;-75
2021/11/13 03:36:07;;;;;;;;;;;20.10;92.60;;;;;;5091879;28;19919;-75
2021/11/13 03:38:34;;;;;;;;;;;20.00;92.10;;;;;;5092347;28;19920;-74
2021/11/13 03:41:02;;;;;;;;;;;20.00;92.50;;;;;;5092199;28;20407;-76
2021/11/13 03:43:28;;;;;;;;;;;20.10;92.30;;;;;;5091965;28;20362;-74
2021/11/13 03:45:55;;;;;;;;;;;20.20;92.50;;;;;;5091905;28;19916;-73
2021/11/13 03:48:22;;;;;;;;;;;20.30;93.20;;;;;;5091827;28;19912;-76
2021/11/13 03:50:57;;;;;;;;;;;20.30;92.40;;;;;;5091914;28;20378;-73
2021/11/13 03:53:24;;;;;;;;;;;20.20;92.70;;;;;;5091924;28;19956;-72
2021/11/13 03:55:50;;;;;;;;;;;20.20;93.00;;;;;;5091516;28;19908;-72
2021/11/13 03:58:17;;;;;;;;;;;20.20;93.10;;;;;;5098627;22;19924;-75
2021/11/13 04:00:44;;;;;;;;;;;20.30;92.50;;;;;;5090971;28;20002;-67
2021/11/13 04:03:11;;;;;;;;;;;20.20;92.40;;;;;;5091709;28;20268;-72
2021/11/13 04:05:38;;;;;;;;;;;20.30;92.30;;;;;;5090178;28;20053;-73
2021/11/13 04:08:04;;;;;;;;;;;20.30;92.30;;;;;;5091532;28;19908;-72
2021/11/13 04:10:32;;;;;;;;;;;20.30;92.20;;;;;;5091553;28;19912;-71
2021/11/13 04:12:59;;;;;;;;;;;20.30;92.10;;;;;;5090004;28;19912;-66
2021/11/13 04:15:26;;;;;;;;;;;20.30;92.00;;;;;;5091381;28;19993;-72
2021/11/13 04:17:53;;;;;;;;;;;20.30;92.70;;;;;;5091250;28;19919;-71
2021/11/13 04:20:20;;;;;;;;;;;20.30;92.30;;;;;;5091404;28;20261;-72
2021/11/13 04:22:48;;;;;;;;;;;20.30;92.20;;;;;;5090474;28;19995;-73
2021/11/13 04:25:23;;;;;;;;;;;20.30;92.30;;;;;;5091340;28;20284;-70
2021/11/13 04:27:51;;;;;;;;;;;20.20;92.40;;;;;;5090841;28;19941;-78
2021/11/13 04:30:18;;;;;;;;;;;20.20;92.30;;;;;;5091086;28;19908;-70
2021/11/13 04:32:46;;;;;;;;;;;20.20;92.30;;;;;;5091379;28;19939;-70
2021/11/13 04:37:59;;;;;;;;;;;20.30;92.10;;;;;;5091071;28;19932;-71
2021/11/13 04:40:33;;;;;;;;;;;20.30;91.90;;;;;;5090981;28;19920;-71
2021/11/13 04:43:03;;;;;;;;;;;20.30;92.90;;;;;;5090851;28;19912;-72
2021/11/13 04:45:30;;;;;;;;;;;20.20;92.30;;;;;;5090904;28;20430;-72
2021/11/13 04:47:57;;;;;;;;;;;20.10;92.00;;;;;;5090814;28;19915;-72
2021/11/13 04:50:25;;;;;;;;;;;20.00;92.30;;;;;;5090735;28;19924;-73
2021/11/13 04:52:52;;;;;;;;;;;20.00;92.70;;;;;;5090469;28;19991;-71
2021/11/13 04:55:19;;;;;;;;;;;20.00;92.40;;;;;;5090373;28;19909;-72
2021/11/13 04:57:47;;;;;;;;;;;20.00;92.20;;;;;;5090372;28;20370;-72
2021/11/13 05:00:17;;;;;;;;;;;19.90;93.40;;;;;;5090781;28;19959;-71
2021/11/13 05:02:44;;;;;;;;;;;19.90;92.40;;;;;;5090863;28;20033;-73
2021/11/13 05:05:11;;;;;;;;;;;20.00;92.90;;;;;;5090545;28;19927;-71
2021/11/13 05:07:37;;;;;;;;;;;20.10;92.30;;;;;;5090283;28;20283;-71
2021/11/13 05:10:04;;;;;;;;;;;20.20;92.20;;;;;;5090614;28;19912;-71
2021/11/13 05:12:31;;;;;;;;;;;20.20;92.30;;;;;;5090391;28;20114;-70
2021/11/13 05:14:58;;;;;;;;;;;20.10;92.80;;;;;;5090631;28;20283;-71
2021/11/13 05:17:25;;;;;;;;;;;20.10;92.60;;;;;;5090626;28;19908;-70
2021/11/13 05:19:51;;;;;;;;;;;20.10;92.70;;;;;;5090350;28;20265;-71
2021/11/13 05:22:18;;;;;;;;;;;20.10;93.00;;;;;;5090545;28;19908;-72
2021/11/13 05:24:45;;;;;;;;;;;20.20;92.70;;;;;;5090231;28;19916;-70
2021/11/13 05:27:12;;;;;;;;;;;20.20;93.30;;;;;;5090485;28;19963;-70
2021/11/13 05:29:39;;;;;;;;;;;20.30;93.20;;;;;;5090590;28;20354;-73
2021/11/13 05:32:06;;;;;;;;;;;20.30;92.60;;;;;;5089661;28;20392;-72
2021/11/13 05:34:33;;;;;;;;;;;20.30;92.80;;;;;;5094481;28;19916;-73
2021/11/13 05:36:59;;;;;;;;;;;20.20;93.20;;;;;;5094718;28;19912;-74
2021/11/13 05:39:26;;;;;;;;;;;20.30;93.10;;;;;;5092850;28;19908;-74
2021/11/13 05:41:53;;;;;;;;;;;20.30;93.50;;;;;;5094309;28;19908;-73
2021/11/13 05:44:20;;;;;;;;;;;20.40;93.10;;;;;;5094036;28;19908;-72
2021/11/13 05:46:50;;;;;;;;;;;20.30;93.10;;;;;;5094501;28;19908;-73
2021/11/13 05:49:17;;;;;;;;;;;20.20;93.50;;;;;;5094408;28;19926;-73
2021/11/13 05:51:44;;;;;;;;;;;20.10;93.50;;;;;;5096096;28;20262;-73
2021/11/13 05:54:18;;;;;;;;;;;20.00;93.30;;;;;;5085492;28;19932;-72
2021/11/13 05:56:45;;;;;;;;;;;20.00;93.10;;;;;;5095696;28;20041;-73
2021/11/13 05:59:20;;;;;;;;;;;19.90;93.00;;;;;;5095392;28;19924;-74
2021/11/13 06:01:47;;;;;;;;;;;19.90;93.40;;;;;;5096263;28;19916;-73
2021/11/13 06:04:13;;;;;;;;;;;19.90;93.70;;;;;;5096224;28;19938;-74
2021/11/13 06:06:40;;;;;;;;;;;19.90;93.60;;;;;;5096007;28;19923;-73
2021/11/13 06:09:07;;;;;;;;;;;19.90;92.90;;;;;;5094724;28;19908;-73
2021/11/13 06:11:34;;;;;;;;;;;19.90;93.70;;;;;;5095979;28;19908;-72
2021/11/13 06:14:01;;;;;;;;;;;19.90;93.50;;;;;;5095119;28;19909;-73
2021/11/13 06:16:28;;;;;;;;;;;19.80;93.70;;;;;;5095772;28;19908;-73
2021/11/13 06:18:54;;;;;;;;;;;19.80;93.90;;;;;;5095765;28;19912;-72
2021/11/13 06:21:21;;;;;;;;;;;19.80;94.00;;;;;;5095785;28;19908;-70
2021/11/13 06:23:48;;;;;;;;;;;19.70;93.90;;;;;;5095687;28;19919;-72
2021/11/13 06:26:15;;;;;;;;;;;19.70;93.60;;;;;;5095722;28;19985;-71
2021/11/13 06:28:42;;;;;;;;;;;19.70;93.50;;;;;;5094921;28;20021;-72
2021/11/13 06:31:09;;;;;;;;;;;19.70;93.90;;;;;;5095328;28;19980;-73
2021/11/13 06:33:36;;;;;;;;;;;19.70;93.70;;;;;;5095596;28;19949;-75
2021/11/13 06:36:03;;;;;;;;;;;19.60;93.50;;;;;;5095127;28;19908;-74
2021/11/13 06:38:30;;;;;;;;;;;19.60;93.50;;;;;;5095337;28;20354;-74
2021/11/13 06:40:57;;;;;;;;;;;19.60;93.10;;;;;;5095442;28;19908;-74
2021/11/13 06:43:24;;;;;;;;;;;19.50;93.10;;;;;;5094758;28;19909;-74
2021/11/13 06:45:56;;;;;;;;;;;19.50;94.10;;;;;;5092590;28;19924;-75
2021/11/13 06:48:24;;;;;;;;;;;19.40;93.60;;;;;;5095576;28;19908;-73
2021/11/13 06:50:52;;;;;;;;;;;19.40;93.70;;;;;;5095360;28;20251;-73
2021/11/13 06:53:19;;;;;;;;;;;19.40;93.80;;;;;;5094975;28;20278;-74
2021/11/13 06:56:02;;;;;;;;;;;19.40;94.20;;;;;;5094701;28;19965;-72
2021/11/13 06:58:34;;;;;;;;;;;19.40;93.70;;;;;;5094280;28;20010;-74
2021/11/13 07:01:01;;;;;;;;;;;19.40;93.60;;;;;;5094757;28;19915;-73
2021/11/13 07:03:28;;;;;;;;;;;19.40;94.20;;;;;;5094621;28;19912;-69
2021/11/13 07:05:55;;;;;;;;;;;19.40;94.10;;;;;;5094655;28;19917;-73
2021/11/13 07:08:21;;;;;;;;;;;19.50;93.80;;;;;;5094915;28;19908;-73
2021/11/13 07:10:52;;;;;;;;;;;19.50;94.60;;;;;;5094798;28;20415;-73
2021/11/13 07:13:22;;;;;;;;;;;19.40;94.40;;;;;;5094610;28;19912;-73
2021/11/13 07:15:49;;;;;;;;;;;19.40;93.80;;;;;;5094555;28;19908;-73
2021/11/13 07:18:16;;;;;;;;;;;19.40;93.80;;;;;;5094812;28;19976;-74
2021/11/13 07:20:43;;;;;;;;;;;19.30;94.30;;;;;;5094783;28;20363;-73
2021/11/13 07:23:10;;;;;;;;;;;19.30;93.90;;;;;;5094701;28;19915;-73
2021/11/13 07:25:36;;;;;;;;;;;19.30;94.80;;;;;;5094621;28;19955;-74
2021/11/13 07:28:05;;;;;;;;;;;19.30;94.00;;;;;;5094299;28;19908;-73
2021/11/13 07:30:39;;;;;;;;;;;19.20;94.00;;;;;;5094642;28;20007;-69
2021/11/13 07:33:07;;;;;;;;;;;19.20;94.50;;;;;;5094389;28;19912;-68
2021/11/13 07:35:35;;;;;;;;;;;19.20;94.40;;;;;;5094251;28;19908;-70
2021/11/13 07:38:02;;;;;;;;;;;19.10;94.60;;;;;;5094362;28;19908;-65
2021/11/13 07:40:29;;;;;;;;;;;19.20;94.40;;;;;;5094419;28;19943;-66
2021/11/13 07:42:55;;;;;;;;;;;19.10;94.00;;;;;;5093965;28;20369;-67
2021/11/13 07:45:22;;;;;;;;;;;19.20;94.70;;;;;;5094238;28;19923;-70
2021/11/13 07:47:49;;;;;;;;;;;19.10;94.20;;;;;;5094068;28;20049;-70
2021/11/13 07:50:16;;;;;;;;;;;19.10;94.60;;;;;;5094121;28;20308;-66
2021/11/13 07:52:43;;;;;;;;;;;19.10;94.30;;;;;;5094148;28;19912;-68
2021/11/13 07:55:11;;;;;;;;;;;19.10;94.80;;;;;;5093821;28;19908;-68
2021/11/13 07:57:38;;;;;;;;;;;19.10;94.80;;;;;;5093720;28;19908;-69
2021/11/13 08:00:07;;;;;;;;;;;19.00;94.80;;;;;;5094028;28;20373;-71
2021/11/13 08:02:34;;;;;;;;;;;19.00;94.70;;;;;;5094240;28;20350;-67
2021/11/13 08:05:00;;;;;;;;;;;19.00;95.20;;;;;;5093759;28;19917;-66
2021/11/13 08:07:27;;;;;;;;;;;19.00;94.90;;;;;;5093850;28;19916;-68
2021/11/13 08:09:54;;;;;;;;;;;19.00;95.50;;;;;;5093540;28;20007;-67
2021/11/13 08:12:21;;;;;;;;;;;19.00;95.70;;;;;;5093710;28;20007;-69
2021/11/13 08:14:48;;;;;;;;;;;19.00;94.90;;;;;;5109276;28;20350;-69
2021/11/13 08:17:14;;;;;;;;;;;19.00;94.80;;;;;;5093698;28;19961;-67
2021/11/13 08:19:41;;;;;;;;;;;19.00;94.60;;;;;;5093719;28;19908;-67
2021/11/13 08:22:08;;;;;;;;;;;18.90;94.60;;;;;;5093289;28;19943;-69
2021/11/13 08:24:36;;;;;;;;;;;18.90;94.70;;;;;;5086651;28;20389;-70
2021/11/13 08:27:03;;;;;;;;;;;18.90;94.90;;;;;;5073006;28;19915;-74
2021/11/13 08:29:30;;;;;;;;;;;18.90;94.70;;;;;;5073049;28;19908;-74
2021/11/13 08:31:57;;;;;;;;;;;18.90;94.70;;;;;;5072672;28;19912;-74
2021/11/13 08:34:24;;;;;;;;;;;18.80;95.20;;;;;;5072825;28;19908;-70
2021/11/13 08:36:51;;;;;;;;;;;18.80;95.50;;;;;;5072117;28;19920;-73
2021/11/13 08:39:18;;;;;;;;;;;18.70;95.50;;;;;;5072989;28;19909;-68
2021/11/13 08:41:45;;;;;;;;;;;18.70;95.50;;;;;;5072899;28;19953;-68
2021/11/13 08:44:12;;;;;;;;;;;18.70;95.30;;;;;;5072947;28;19908;-69
2021/11/13 08:46:38;;;;;;;;;;;18.70;95.90;;;;;;5072714;28;19936;-73
2021/11/13 08:49:05;;;;;;;;;;;18.60;96.30;;;;;;5072738;28;19919;-68
2021/11/13 08:51:32;;;;;;;;;;;18.50;97.40;;;;;;5072325;28;19915;-69
2021/11/13 08:53:59;;;;;;;;;;;18.30;98.50;;;;;;5072833;28;20283;-74
2021/11/13 08:56:27;;;;;;;;;;;18.20;98.30;;;;;;5072296;28;20365;-72
2021/11/13 08:58:55;;;;;;;;;;;18.10;98.40;;;;;;5072691;28;19920;-68
2021/11/13 09:01:22;;;;;;;;;;;18.00;98.70;;;;;;5072459;28;19908;-73
2021/11/13 09:03:50;;;;;;;;;;;17.90;99.10;;;;;;5072516;28;19909;-74
2021/11/13 09:06:19;;;;;;;;;;;17.80;99.50;;;;;;5072101;28;19917;-68
2021/11/13 09:08:46;;;;;;;;;;;17.70;99.90;;;;;;5072009;28;20016;-68
2021/11/13 09:11:17;;;;;;;;;;;17.60;99.90;;;;;;5072445;28;20367;-72
2021/11/13 09:13:44;;;;;;;;;;;17.40;99.90;;;;;;5072431;28;19909;-72
2021/11/13 09:16:11;;;;;;;;;;;17.30;99.90;;;;;;5072574;28;20512;-69
2021/11/13 09:18:42;;;;;;;;;;;17.20;99.90;;;;;;5071603;28;19970;-72
2021/11/13 09:21:10;;;;;;;;;;;17.20;99.90;;;;;;5072326;28;20013;-73
2021/11/13 09:23:37;;;;;;;;;;;17.10;99.90;;;;;;5072319;28;19916;-67
2021/11/13 09:26:06;;;;;;;;;;;17.10;99.90;;;;;;5071889;28;19921;-69
2021/11/13 09:28:33;;;;;;;;;;;17.10;99.90;;;;;;5072400;28;19920;-66
2021/11/13 09:31:01;;;;;;;;;;;17.10;99.90;;;;;;5072478;28;19908;-68
2021/11/13 09:33:29;;;;;;;;;;;17.00;99.90;;;;;;5072434;28;20278;-69
2021/11/13 09:35:56;;;;;;;;;;;17.00;99.90;;;;;;5072226;28;20390;-67
2021/11/13 09:38:24;;;;;;;;;;;17.00;99.90;;;;;;5072433;28;19909;-67
2021/11/13 09:40:53;;;;;;;;;;;16.90;99.90;;;;;;5072168;28;19962;-66
2021/11/13 09:43:22;;;;;;;;;;;16.90;99.90;;;;;;5072303;28;19913;-66
2021/11/13 09:45:49;;;;;;;;;;;16.70;99.90;;;;;;5071978;28;19917;-67
2021/11/13 09:48:16;;;;;;;;;;;16.50;99.90;;;;;;5072292;28;20285;-66
2021/11/13 09:50:46;;;;;;;;;;;16.40;99.90;;;;;;5087854;28;20252;-68
2021/11/13 09:53:13;;;;;;;;;;;16.20;99.90;;;;;;5071997;28;19912;-70
2021/11/13 09:55:39;;;;;;;;;;;16.20;99.90;;;;;;5071583;28;19908;-66
2021/11/13 09:58:06;;;;;;;;;;;16.10;99.90;;;;;;5071487;28;19920;-66
2021/11/13 10:00:35;;;;;;;;;;;16.10;99.90;;;;;;5071978;28;19913;-66
2021/11/13 10:03:03;;;;;;;;;;;16.10;99.90;;;;;;5072120;28;19909;-67
2021/11/13 10:05:30;;;;;;;;;;;16.20;99.90;;;;;;5071933;28;19917;-67
2021/11/13 10:07:57;;;;;;;;;;;16.30;99.90;;;;;;5071654;28;19909;-67
2021/11/13 10:10:31;;;;;;;;;;;16.30;99.90;;;;;;5071809;28;19908;-66
2021/11/13 10:12:58;;;;;;;;;;;16.40;99.90;;;;;;5072104;28;19908;-67
2021/11/13 10:15:38;;;;;;;;;;;16.40;99.90;;;;;;5071913;28;19993;-67
2021/11/13 10:18:16;;;;;;;;;;;16.40;99.90;;;;;;5071419;28;20094;-67
2021/11/13 10:20:51;;;;;;;;;;;16.40;99.90;;;;;;5075432;28;19999;-66
2021/11/13 10:23:27;;;;;;;;;;;16.40;99.90;;;;;;5075521;28;19932;-66
2021/11/13 10:25:58;;;;;;;;;;;16.40;99.90;;;;;;5074913;28;19927;-65
2021/11/13 10:28:25;;;;;;;;;;;16.50;99.90;;;;;;5075444;28;19931;-66
2021/11/13 10:31:05;;;;;;;;;;;16.50;99.90;;;;;;5075357;28;20430;-65
2021/11/13 10:33:32;;;;;;;;;;;16.60;99.90;;;;;;5091104;28;19909;-68
2021/11/13 10:36:00;;;;;;;;;;;16.70;99.90;;;;;;5075141;28;19915;-66
2021/11/13 10:38:27;;;;;;;;;;;16.70;99.90;;;;;;5075904;28;19912;-66
2021/11/13 10:40:55;;;;;;;;;;;16.80;99.90;;;;;;5075120;28;19915;-66
2021/11/13 10:43:30;;;;;;;;;;;16.80;99.90;;;;;;5074532;28;19909;-66
2021/11/13 10:46:02;;;;;;;;;;;16.80;99.90;;;;;;5074808;28;19928;-67
2021/11/13 10:48:28;;;;;;;;;;;16.70;99.90;;;;;;5075051;28;19908;-66
2021/11/13 10:51:03;;;;;;;;;;;16.80;99.90;;;;;;5075018;28;19920;-68
2021/11/13 10:53:31;;;;;;;;;;;16.80;99.90;;;;;;5074661;28;19943;-66
2021/11/13 10:56:13;;;;;;;;;;;16.80;99.90;;;;;;5074898;28;19916;-66
2021/11/13 10:58:41;;;;;;;;;;;16.80;99.90;;;;;;5074784;28;20367;-69
2021/11/13 11:01:09;;;;;;;;;;;16.90;99.90;;;;;;5075165;28;19984;-66
2021/11/13 11:03:43;;;;;;;;;;;16.80;99.90;;;;;;5075133;28;20350;-66
2021/11/13 11:06:10;;;;;;;;;;;16.80;99.90;;;;;;5074662;28;19917;-68
2021/11/13 11:08:38;;;;;;;;;;;16.60;99.90;;;;;;5074901;28;20370;-66
2021/11/13 11:11:25;;;;;;;;;;;16.60;99.90;;;;;;5090355;28;19999;-67
2021/11/13 11:13:53;;;;;;;;;;;16.60;99.90;;;;;;5074107;28;19916;-68
2021/11/13 11:16:23;;;;;;;;;;;16.60;99.90;;;;;;5074663;28;19908;-67
2021/11/13 11:19:01;;;;;;;;;;;16.70;99.90;;;;;;5074576;28;20436;-65
2021/11/13 11:21:41;;;;;;;;;;;16.70;99.90;;;;;;5074481;28;19918;-65
2021/11/13 11:24:12;;;;;;;;;;;16.70;99.90;;;;;;5074222;28;19954;-65
2021/11/13 11:26:42;;;;;;;;;;;16.70;99.90;;;;;;5074257;28;20374;-65
2021/11/13 11:29:09;;;;;;;;;;;16.80;99.90;;;;;;5074344;28;20370;-65
2021/11/13 11:31:46;;;;;;;;;;;16.80;99.90;;;;;;5073822;28;19917;-66
2021/11/13 11:34:23;;;;;;;;;;;16.70;99.90;;;;;;5074529;28;19908;-65
2021/11/13 11:36:50;;;;;;;;;;;16.60;99.90;;;;;;5074224;28;19920;-65
2021/11/13 11:39:17;;;;;;;;;;;16.50;99.90;;;;;;5089918;28;19909;-65
2021/11/13 11:41:44;;;;;;;;;;;16.50;99.90;;;;;;5074247;28;19920;-66
2021/11/13 11:44:12;;;;;;;;;;;16.50;99.90;;;;;;5073869;28;20363;-68
2021/11/13 11:46:39;;;;;;;;;;;16.50;99.90;;;;;;5074043;28;20011;-67
2021/11/13 11:49:06;;;;;;;;;;;16.50;99.90;;;;;;5073863;28;20011;-66
2021/11/13 11:51:33;;;;;;;;;;;16.60;99.90;;;;;;5073916;28;19971;-66
2021/11/13 11:54:00;;;;;;;;;;;16.50;99.90;;;;;;5073590;28;19948;-66
2021/11/13 11:56:27;;;;;;;;;;;16.60;99.90;;;;;;5073759;28;20366;-66
2021/11/13 11:58:55;;;;;;;;;;;16.60;99.90;;;;;;5073609;28;19920;-65
2021/11/13 12:01:30;;;;;;;;;;;16.60;99.90;;;;;;5073747;28;19919;-68
2021/11/13 12:04:28;;;;;;;;;;;16.70;99.90;;;;;;5073322;28;19908;-65
2021/11/13 12:06:56;;;;;;;;;;;16.70;99.90;;;;;;5039549;28;19977;-65
2021/11/13 12:09:27;;;;;;;;;;;16.70;99.90;;;;;;5089267;28;19916;-66
2021/11/13 12:12:12;;;;;;;;;;;16.80;99.90;;;;;;5073301;28;19909;-65
2021/11/13 12:14:40;;;;;;;;;;;16.80;99.90;;;;;;5073483;28;19908;-66
2021/11/13 12:17:29;;;;;;;;;;;16.80;99.90;;;;;;5073362;28;20290;-66
2021/11/13 12:20:05;;;;;;;;;;;16.80;99.90;;;;;;5065227;28;20302;-66
2021/11/13 12:22:37;;;;;;;;;;;16.80;99.90;;;;;;5073440;28;19920;-66
2021/11/13 12:25:14;;;;;;;;;;;16.80;99.90;;;;;;5073091;28;19916;-65
2021/11/13 12:27:41;;;;;;;;;;;16.80;99.90;;;;;;5073273;28;19916;-65
2021/11/13 12:30:08;;;;;;;;;;;16.70;99.90;;;;;;5073032;28;19909;-65
2021/11/13 12:32:38;;;;;;;;;;;16.60;99.90;;;;;;5073056;28;20019;-66
2021/11/13 12:35:06;;;;;;;;;;;16.50;99.90;;;;;;5073113;28;19916;-66
2021/11/13 12:37:35;;;;;;;;;;;16.50;99.90;;;;;;5073315;28;19919;-65
2021/11/13 12:40:18;;;;;;;;;;;16.40;99.90;;;;;;5079132;28;19908;-71
2021/11/13 12:42:45;;;;;;;;;;;16.30;99.90;;;;;;5091949;28;19924;-66
2021/11/13 12:45:13;;;;;;;;;;;16.20;99.90;;;;;;5092997;28;19926;-65
2021/11/13 12:47:40;;;;;;;;;;;16.10;99.90;;;;;;5093158;28;20282;-68
2021/11/13 12:50:08;;;;;;;;;;;16.00;99.90;;;;;;5092891;28;19908;-66
2021/11/13 12:52:43;;;;;;;;;;;16.00;99.90;;;;;;5092958;28;19999;-66
2021/11/13 12:55:23;;;;;;;;;;;15.90;99.90;;;;;;5092844;28;19908;-67
2021/11/13 12:58:08;;;;;;;;;;;15.90;99.90;;;;;;5092119;28;19939;-70
2021/11/13 13:00:45;;;;;;;;;;;16.00;99.90;;;;;;5082743;28;19916;-66
2021/11/13 13:03:20;;;;;;;;;;;16.00;99.90;;;;;;5082382;28;19912;-67
2021/11/13 13:05:47;;;;;;;;;;;16.10;99.90;;;;;;5092610;28;20003;-68
2021/11/13 13:08:17;;;;;;;;;;;16.10;99.90;;;;;;5092726;28;20507;-67
2021/11/13 13:10:44;;;;;;;;;;;16.20;99.90;;;;;;5083073;28;19917;-67
2021/11/13 13:13:15;;;;;;;;;;;16.30;99.90;;;;;;5075958;28;19908;-67
2021/11/13 13:15:51;;;;;;;;;;;16.40;99.90;;;;;;5072500;28;20001;-67
2021/11/13 13:18:18;;;;;;;;;;;16.40;99.90;;;;;;5072443;28;19909;-67
2021/11/13 13:20:45;;;;;;;;;;;16.40;99.90;;;;;;5072352;28;20281;-68
2021/11/13 13:23:20;;;;;;;;;;;16.40;99.90;;;;;;5072426;28;19915;-70
2021/11/13 13:25:49;;;;;;;;;;;16.40;99.90;;;;;;5074056;28;20373;-67
2021/11/13 13:28:20;;;;;;;;;;;16.40;99.90;;;;;;5080838;28;19912;-66
2021/11/13 13:30:47;;;;;;;;;;;16.40;99.90;;;;;;5086704;28;20365;-64
2021/11/13 13:33:14;;;;;;;;;;;16.40;99.90;;;;;;5082682;28;20270;-65
2021/11/13 13:35:41;;;;;;;;;;;16.30;99.90;;;;;;5081727;28;19916;-68
2021/11/13 13:38:08;;;;;;;;;;;16.40;99.90;;;;;;5082261;28;19931;-71
2021/11/13 13:40:41;;;;;;;;;;;16.30;99.90;;;;;;5081376;28;19962;-72
2021/11/13 13:43:19;;;;;;;;;;;16.30;99.90;;;;;;5080807;28;19909;-71
2021/11/13 13:45:47;;;;;;;;;;;16.40;99.90;;;;;;5092045;28;20370;-66
2021/11/13 13:48:17;;;;;;;;;;;16.40;99.90;;;;;;5092071;28;19954;-70
2021/11/13 13:50:48;;;;;;;;;;;16.40;99.90;;;;;;5092146;28;20374;-71
2021/11/13 13:53:15;;;;;;;;;;;16.30;99.90;;;;;;5092419;28;19970;-71
2021/11/13 13:55:42;;;;;;;;;;;16.40;99.90;;;;;;5096111;28;19908;-70
2021/11/13 13:58:10;;;;;;;;;;;16.40;99.90;;;;;;5095959;28;20015;-71
2021/11/13 14:00:38;;;;;;;;;;;16.30;99.90;;;;;;5096578;28;19996;-71
2021/11/13 14:03:05;;;;;;;;;;;16.40;99.90;;;;;;5096342;28;19915;-72
2021/11/13 14:05:33;;;;;;;;;;;16.30;99.90;;;;;;5096081;28;20021;-71
2021/11/13 14:08:10;;;;;;;;;;;16.40;99.90;;;;;;5096005;28;19908;-72
2021/11/13 14:10:50;;;;;;;;;;;16.40;99.90;;;;;;5096072;28;19908;-71
2021/11/13 14:13:18;;;;;;;;;;;16.40;99.90;;;;;;5095993;28;19908;-72
2021/11/13 14:15:52;;;;;;;;;;;16.30;99.90;;;;;;5095818;28;19959;-71
2021/11/13 14:18:20;;;;;;;;;;;16.30;99.90;;;;;;5096021;28;19948;-70
2021/11/13 14:20:48;;;;;;;;;;;16.30;99.90;;;;;;5096038;28;20004;-70
2021/11/13 14:23:22;;;;;;;;;;;16.20;99.90;;;;;;5095964;28;19908;-72
2021/11/13 14:25:59;;;;;;;;;;;16.10;99.90;;;;;;5095610;28;19969;-72
2021/11/13 14:28:30;;;;;;;;;;;16.20;99.90;;;;;;5096017;28;19912;-71